Terminal Aerodrome Forecast
Issued by NWS Charleston, WV

Current Version | Previous Version | Text Only | Print | Product List | Glossary Off
Versions: 1 2 3 4 5 6 7 8 9 10 11 12 13 14 15 16 17 18 19 20 21 22 23 24 25 26 27 28 29 30

651
FTUS41 KRLX 212326
TAFPKB
TAF
KPKB 212326Z 2200/2224 VRB03KT P6SM SCT250
     FM220800 VRB03KT 6SM BR SCT150
     FM221200 21005KT P6SM SCT100
     FM221700 23009G16KT P6SM VCTS SCT080CB
     FM222200 25007KT 3SM TSRA OVC040CB=

USA.gov is the U.S. government's official web portal to all federal, state and local government web resources and services.